createdAt,value
2022-10-28T00:00:02.955Z,83.2
2022-10-28T00:03:03.322Z,83.2
2022-10-28T00:06:02.911Z,83.2
2022-10-28T00:09:04.548Z,83.2
2022-10-28T00:12:02.957Z,83.2
2022-10-28T00:15:02.899Z,83.2
2022-10-28T00:18:02.909Z,83.2
2022-10-28T00:21:02.899Z,83.2
2022-10-28T00:24:02.902Z,83.2
2022-10-28T00:27:02.934Z,83.7
2022-10-28T00:30:02.936Z,83.7
2022-10-28T00:33:02.888Z,83.7
2022-10-28T00:36:06.733Z,83.7
2022-10-28T00:39:02.967Z,83.7
2022-10-28T00:42:02.924Z,83.7
2022-10-28T00:45:02.883Z,83.7
2022-10-28T00:48:02.914Z,83.7
2022-10-28T00:51:02.901Z,83.7
2022-10-28T00:54:02.957Z,83.7
2022-10-28T00:57:02.969Z,83.5
2022-10-28T01:00:02.986Z,83.5
2022-10-28T01:03:02.916Z,83.5
2022-10-28T01:06:02.954Z,83.5
2022-10-28T01:09:02.927Z,84.2
2022-10-28T01:12:02.980Z,84.2
2022-10-28T01:15:02.962Z,84.2
2022-10-28T01:18:02.902Z,84.2
2022-10-28T01:21:02.936Z,84.2
2022-10-28T01:24:02.907Z,84.2
2022-10-28T01:27:02.947Z,84.2
2022-10-28T01:30:02.962Z,84.2
2022-10-28T01:33:02.897Z,84.2
2022-10-28T01:36:03.120Z,84.2
2022-10-28T01:39:02.919Z,84.2
2022-10-28T01:42:02.980Z,84.2
2022-10-28T01:45:02.943Z,84.2
2022-10-28T01:48:02.960Z,84.2
2022-10-28T01:51:02.913Z,85.4
2022-10-28T01:54:02.936Z,85.4
2022-10-28T01:57:02.898Z,85.4
2022-10-28T02:00:02.917Z,85.4
2022-10-28T02:03:02.928Z,85.4
2022-10-28T02:06:03.000Z,85.4
2022-10-28T02:09:02.928Z,85.4
2022-10-28T02:12:02.981Z,85.4
2022-10-28T02:15:03.255Z,85.4
2022-10-28T02:18:03.083Z,85.4
2022-10-28T02:21:02.939Z,85.4
2022-10-28T02:24:02.938Z,85.4
2022-10-28T02:27:02.903Z,85.4
2022-10-28T02:30:02.902Z,84.9
2022-10-28T02:33:02.891Z,84.9
2022-10-28T02:36:02.952Z,84.9
2022-10-28T02:39:02.907Z,84.9
2022-10-28T02:42:02.920Z,84.9
2022-10-28T02:45:02.905Z,84.9
2022-10-28T02:48:02.922Z,84.9
2022-10-28T02:51:02.906Z,85.4
2022-10-28T02:54:02.894Z,85.4
2022-10-28T02:57:02.908Z,85.4
2022-10-28T03:00:02.961Z,85.4
2022-10-28T03:03:02.954Z,85.4
2022-10-28T03:06:02.907Z,85.4
2022-10-28T03:09:02.949Z,85.4
2022-10-28T03:12:02.989Z,85.4
2022-10-28T03:15:02.956Z,85.4
2022-10-28T03:18:03.036Z,85.6
2022-10-28T03:21:02.928Z,85.6
2022-10-28T03:24:02.948Z,85.6
2022-10-28T03:27:02.914Z,85.6
2022-10-28T03:30:02.954Z,85.6
2022-10-28T03:33:02.944Z,85.6
2022-10-28T03:36:02.904Z,85.6
2022-10-28T03:39:03.008Z,85.6
2022-10-28T03:42:02.894Z,85.6
2022-10-28T03:45:02.898Z,85.7
2022-10-28T03:48:03.042Z,85.7
2022-10-28T03:51:02.935Z,85.7
2022-10-28T03:54:03.045Z,85.7
2022-10-28T03:57:03.015Z,85.7
2022-10-28T04:00:03.038Z,85.7
2022-10-28T04:03:02.882Z,85.7
2022-10-28T04:06:02.960Z,85.7
2022-10-28T04:09:02.912Z,85.7
2022-10-28T04:12:03.166Z,85.7
2022-10-28T04:15:02.930Z,85.7
2022-10-28T04:18:02.922Z,85.7
2022-10-28T04:21:02.915Z,85.7
2022-10-28T04:24:02.956Z,85.7
2022-10-28T04:27:02.915Z,85.7
2022-10-28T04:30:03.006Z,85.7
2022-10-28T04:33:02.900Z,85.7
2022-10-28T04:36:02.946Z,85.9
2022-10-28T04:39:02.998Z,85.9
2022-10-28T04:42:02.900Z,85.9
2022-10-28T04:45:02.953Z,85.9
2022-10-28T04:48:02.927Z,85.9
2022-10-28T04:51:03.025Z,85.9
2022-10-28T04:54:02.878Z,85.9
2022-10-28T04:57:02.952Z,85.9
2022-10-28T05:00:02.919Z,85.9
2022-10-28T05:03:02.956Z,85.9
2022-10-28T05:06:02.902Z,85.9
2022-10-28T05:09:02.990Z,86.4
2022-10-28T05:12:02.937Z,86.4
2022-10-28T05:15:03.006Z,86.4
2022-10-28T05:18:02.961Z,86.4
2022-10-28T05:21:02.905Z,86.4
2022-10-28T05:24:02.951Z,86.4
2022-10-28T05:27:03.041Z,86.4
2022-10-28T05:30:02.990Z,86.4
2022-10-28T05:33:03.755Z,86.4
2022-10-28T05:36:03.026Z,86.4
2022-10-28T05:39:02.955Z,86.4
2022-10-28T05:42:02.978Z,86.4
2022-10-28T05:45:02.960Z,86.4
2022-10-28T05:48:03.064Z,86.4
2022-10-28T05:51:02.936Z,86.4
2022-10-28T05:54:03.825Z,86.4
2022-10-28T05:57:02.890Z,86.5
2022-10-28T06:00:03.820Z,86.5
2022-10-28T06:03:02.941Z,86.5
2022-10-28T06:06:02.986Z,86.5
2022-10-28T06:09:03.037Z,86.5
2022-10-28T06:12:01.451Z,86.5
2022-10-28T06:15:01.438Z,86.5
2022-10-28T06:18:01.434Z,86.5
2022-10-28T06:21:01.902Z,86.5
2022-10-28T06:24:01.488Z,86.5
2022-10-28T06:27:01.444Z,86.5
2022-10-28T06:30:01.618Z,86.2
2022-10-28T06:33:01.444Z,86.2
2022-10-28T06:36:01.525Z,86.2
2022-10-28T06:39:01.404Z,86.2
2022-10-28T06:42:01.702Z,86.2
2022-10-28T06:45:01.437Z,86.2
2022-10-28T06:48:02.985Z,86.2
2022-10-28T06:51:02.935Z,86.2
2022-10-28T06:54:02.990Z,86.2
2022-10-28T06:57:03.181Z,86.2
2022-10-28T07:00:03.154Z,86.2
2022-10-28T07:03:03.837Z,86.2
2022-10-28T07:06:03.164Z,86.2
2022-10-28T07:09:03.009Z,86.2
2022-10-28T07:12:08.010Z,86.2
2022-10-28T07:15:03.056Z,86.2
2022-10-28T07:18:03.028Z,86.2
2022-10-28T07:21:03.003Z,86.2
2022-10-28T07:24:02.964Z,86.2
2022-10-28T07:27:03.036Z,86.9
2022-10-28T07:30:03.019Z,86.9
2022-10-28T07:33:03.090Z,86.9
2022-10-28T07:36:03.044Z,86.9
2022-10-28T07:39:03.062Z,86.9
2022-10-28T07:42:03.044Z,86.9
2022-10-28T07:45:03.035Z,86.9
2022-10-28T07:48:03.113Z,86.9
2022-10-28T07:51:03.029Z,86.9
2022-10-28T07:54:03.015Z,86.9
2022-10-28T07:57:03.047Z,86.9
2022-10-28T08:00:03.208Z,86.9
2022-10-28T08:03:02.963Z,86.9
2022-10-28T08:06:03.003Z,86.9
2022-10-28T08:09:02.996Z,87.2
2022-10-28T08:12:03.049Z,87.2
2022-10-28T08:15:02.997Z,85.3
2022-10-28T08:18:03.029Z,83.8
2022-10-28T08:24:02.995Z,81.4
2022-10-28T08:27:03.043Z,80.7
2022-10-28T08:30:03.067Z,80.7
2022-10-28T08:33:02.948Z,79.1
2022-10-28T08:36:02.947Z,79.1
2022-10-28T08:39:02.942Z,79.1
2022-10-28T08:42:03.032Z,77.5
2022-10-28T08:45:03.001Z,77.5
2022-10-28T08:51:02.993Z,76.2
2022-10-28T08:54:03.075Z,76.2
2022-10-28T08:57:02.943Z,76.2
2022-10-28T09:00:03.062Z,76.2
2022-10-28T09:03:02.966Z,76.2
2022-10-28T09:06:02.987Z,72.8
2022-10-28T09:12:03.019Z,70.3
2022-10-28T09:18:02.990Z,69.5
2022-10-28T09:27:03.047Z,70
2022-10-28T09:42:03.006Z,68.9
2022-10-28T09:45:03.337Z,68.9
2022-10-28T09:51:03.004Z,68.9
2022-10-28T09:54:02.979Z,68.9
2022-10-28T09:57:02.924Z,68.9
2022-10-28T10:00:03.151Z,68.9
2022-10-28T10:03:03.202Z,68.9
2022-10-28T10:06:02.948Z,68.9
2022-10-28T10:09:03.077Z,68.9
2022-10-28T10:12:02.976Z,68.9
2022-10-28T10:21:03.030Z,68.8
2022-10-28T10:24:03.036Z,68.8
2022-10-28T10:30:03.005Z,68.8
2022-10-28T10:33:03.072Z,68.8
2022-10-28T10:42:03.001Z,68.8
2022-10-28T10:45:02.935Z,68.8
2022-10-28T10:48:03.033Z,68.9
2022-10-28T10:51:02.994Z,68.9
2022-10-28T10:57:02.989Z,68.9
2022-10-28T11:00:03.046Z,68.9
2022-10-28T11:09:03.338Z,66.3
2022-10-28T11:15:03.036Z,65.4
2022-10-28T11:24:02.988Z,64.8
2022-10-28T11:33:29.209Z,64.8
2022-10-28T11:39:03.009Z,64.8
2022-10-28T11:42:02.994Z,64.8
2022-10-28T11:45:02.985Z,63.4
2022-10-28T11:48:03.246Z,63.4
2022-10-28T11:57:02.999Z,63.4
2022-10-28T12:00:03.164Z,63.4
2022-10-28T12:09:03.164Z,62.3
2022-10-28T12:42:02.958Z,63
2022-10-28T12:51:02.976Z,63
2022-10-28T13:00:03.054Z,63
2022-10-28T13:12:02.953Z,63
2022-10-28T13:15:03.207Z,63
2022-10-28T13:21:02.963Z,63
2022-10-28T13:27:03.185Z,63
2022-10-28T13:33:02.986Z,63
2022-10-28T13:39:03.041Z,63
2022-10-28T13:45:03.045Z,63
2022-10-28T13:48:03.035Z,63
2022-10-28T14:00:03.108Z,62.1
2022-10-28T14:03:04.134Z,62.1
2022-10-28T14:06:03.370Z,62.7
2022-10-28T14:09:03.036Z,62.7
2022-10-28T14:12:02.964Z,62.7
2022-10-28T14:21:03.373Z,62.7
2022-10-28T14:24:02.999Z,62.7
2022-10-28T14:36:02.999Z,62.7
2022-10-28T14:42:03.129Z,62.7
2022-10-28T14:54:02.983Z,62.7
2022-10-28T15:15:02.927Z,63.5
2022-10-28T15:18:02.968Z,63.5
2022-10-28T15:24:03.029Z,63.5
2022-10-28T15:27:02.929Z,63.5
2022-10-28T15:30:03.026Z,63.5
2022-10-28T15:33:02.962Z,63.5
2022-10-28T15:36:02.965Z,63.5
2022-10-28T15:42:02.950Z,65.3
2022-10-28T15:45:02.992Z,65.3
2022-10-28T15:51:02.998Z,65.3
2022-10-28T15:54:02.947Z,65.5
2022-10-28T16:03:04.400Z,65.5
2022-10-28T16:06:02.922Z,65.5
2022-10-28T16:18:02.981Z,65.5
2022-10-28T16:30:03.066Z,65.6
2022-10-28T16:33:03.100Z,65.6
2022-10-28T16:36:03.072Z,65.6
2022-10-28T16:42:03.234Z,65.6
2022-10-28T16:45:02.976Z,65.6
2022-10-28T16:48:03.188Z,65.6
2022-10-28T17:00:02.937Z,67.3
2022-10-28T17:12:02.917Z,67.3
2022-10-28T17:15:02.937Z,67.3
2022-10-28T17:21:02.943Z,67.3
2022-10-28T17:33:02.948Z,67.3
2022-10-28T17:39:02.936Z,67.3
2022-10-28T17:42:03.010Z,67.3
2022-10-28T17:45:02.932Z,67.3
2022-10-28T17:54:02.961Z,66
2022-10-28T17:57:03.023Z,66
2022-10-28T18:09:02.959Z,65.3
2022-10-28T18:12:02.964Z,65.3
2022-10-28T18:15:03.055Z,65.3
2022-10-28T18:18:02.914Z,65.3
2022-10-28T18:27:02.958Z,65.3
2022-10-28T18:30:02.967Z,65.3
2022-10-28T18:33:02.957Z,65.3
2022-10-28T18:42:02.963Z,65.3
2022-10-28T18:48:03.036Z,65.6
2022-10-28T18:51:02.918Z,65.6
2022-10-28T18:54:03.144Z,65.6
2022-10-28T19:00:22.263Z,65.6
2022-10-28T19:03:02.976Z,65.6
2022-10-28T19:06:03.026Z,65.6
2022-10-28T19:18:02.978Z,65.8
2022-10-28T19:30:05.419Z,65.8
2022-10-28T19:33:02.985Z,65.8
2022-10-28T19:36:02.970Z,65.8
2022-10-28T19:45:02.961Z,67.6
2022-10-28T19:48:02.918Z,68.1
2022-10-28T19:57:03.429Z,68.1
2022-10-28T20:00:02.965Z,68.1
2022-10-28T20:03:03.143Z,68.1
2022-10-28T20:06:02.991Z,68.1
2022-10-28T20:15:03.032Z,68.9
2022-10-28T20:18:02.947Z,69
2022-10-28T20:27:02.991Z,69
2022-10-28T20:30:02.989Z,69.8
2022-10-28T20:33:02.952Z,69.8
2022-10-28T20:39:02.931Z,69.8
2022-10-28T20:42:02.959Z,69.8
2022-10-28T20:51:02.940Z,69.8
2022-10-28T21:03:04.740Z,70.9
2022-10-28T21:18:03.047Z,71.9
2022-10-28T21:21:02.931Z,71.9
2022-10-28T21:27:02.959Z,72.2
2022-10-28T21:39:02.925Z,72.6
2022-10-28T21:42:03.114Z,72.9
2022-10-28T21:48:02.927Z,72.9
2022-10-28T22:00:03.173Z,72.9
2022-10-28T22:18:02.976Z,72.9
2022-10-28T22:21:02.976Z,74.6
2022-10-28T22:27:02.968Z,74.7
2022-10-28T22:36:02.940Z,74.7
2022-10-28T22:39:03.070Z,74.7
2022-10-28T22:42:02.987Z,74.7
2022-10-28T22:48:02.975Z,75.3
2022-10-28T22:54:02.988Z,75.3
2022-10-28T22:57:02.921Z,75.3
2022-10-28T23:06:02.954Z,75.3
2022-10-28T23:15:02.935Z,75.2
2022-10-28T23:18:02.953Z,75.2
2022-10-28T23:24:02.948Z,75.2
2022-10-28T23:27:02.954Z,75.2
2022-10-28T23:30:02.941Z,75.2
2022-10-28T23:33:02.910Z,75.2
2022-10-28T23:42:02.960Z,75.2
2022-10-28T23:48:03.030Z,75.2
2022-10-28T23:51:02.926Z,75.2
2022-10-28T23:57:02.896Z,75.2
